Kriti Ruby — SVAT5 — position and weather

sailwx.info

Track history (hours):
 
Tides and Currents Weather Stations Pressure Air Temp Water Temp Dewpoint Dewpoint Depression Visibility Wind Speed Wind Dir Waves Ship Positions

Kriti Ruby

Last reported at 2015-Apr-13 10:05 UTC. Time now 2015-Apr-19 10:56 UTC.
Position N 29°21' W 094°44'.

Length 183 m; draft 10.2 m.

Type: Ship (hazmat cat B). MMSI: 240941000.

Date/timePositionNaut miles runAvg speedWind from/ knotsBaromVisibWave heightAir tempDewpointWater temp
2015-Apr-13 10:05N 29°21' W 094°44'611.4
2015-Apr-13 09:33N 29°25' W 094°49'1211.6
2015-Apr-13 08:34N 29°35' W 094°56'10 9.8
2015-Apr-13 07:34N 29°43' W 095°01'5 4.8
2015-Apr-13 06:34N 29°44' W 095°07'5 4.6
2015-Apr-13 05:34N 29°44' W 095°12'1 1.3
2015-Apr-13 04:33N 29°44' W 095°13'0 0.0
2015-Apr-12 05:33N 29°44' W 095°13'0 0.0
2015-Apr-12 04:30N 29°44' W 095°13'0 0.0
2015-Apr-12 03:24N 29°44' W 095°13'0 0.0
2015-Apr-12 02:33N 29°44' W 095°13'0 0.0
2015-Apr-12 01:33N 29°44' W 095°13'0 0.0
2015-Apr-12 00:30N 29°44' W 095°13'0 0.0
2015-Apr-11 23:27N 29°44' W 095°13'0 0.0
2015-Apr-11 22:27N 29°44' W 095°13'0 0.0
2015-Apr-11 21:33N 29°44' W 095°13'0 0.0
2015-Apr-11 20:30N 29°44' W 095°13'0 0.0
2015-Apr-11 19:33N 29°44' W 095°13'0 0.0
2015-Apr-11 18:24N 29°44' W 095°13'0 0.0
2015-Apr-11 17:33N 29°44' W 095°13'0 0.0
2015-Apr-11 16:33N 29°44' W 095°13'0 0.0
2015-Apr-11 15:33N 29°44' W 095°13'0 0.0
2015-Apr-11 14:33N 29°44' W 095°13'0 0.0
2015-Apr-11 13:33N 29°44' W 095°13'0 0.0
2015-Apr-11 12:33N 29°44' W 095°13'0 0.0
2015-Apr-11 11:33N 29°44' W 095°13'0 0.0
2015-Apr-11 10:33N 29°44' W 095°13'0 0.0
2015-Apr-11 09:33N 29°44' W 095°13'0 0.0
2015-Apr-11 08:33N 29°44' W 095°13'0 0.0
2015-Apr-11 07:33N 29°44' W 095°13'0 0.0
2015-Apr-11 06:33N 29°44' W 095°13'0 0.0
2015-Apr-11 05:33N 29°44' W 095°13'0 0.0
2015-Apr-11 04:24N 29°44' W 095°13'0 0.0
2015-Apr-11 03:33N 29°44' W 095°13'0 0.0
2015-Apr-11 02:33N 29°44' W 095°13'0 0.0
2015-Apr-11 01:33N 29°44' W 095°13'0 0.0
2015-Apr-11 00:30N 29°44' W 095°13'0 0.0
2015-Apr-10 23:33N 29°44' W 095°13'0 0.0
2015-Apr-10 22:33N 29°44' W 095°13'0 0.0
2015-Apr-10 21:33N 29°44' W 095°13'0 0.0
2015-Apr-10 20:33N 29°44' W 095°13'0 0.0
2015-Apr-10 19:33N 29°44' W 095°13'0 0.0
2015-Apr-10 18:33N 29°44' W 095°13'1 0.9
2015-Apr-10 17:33N 29°43' W 095°14'4 4.1
2015-Apr-10 16:33N 29°45' W 095°10'6 5.7
2015-Apr-10 15:33N 29°44' W 095°03'9 9.0
2015-Apr-10 14:33N 29°37' W 094°57'1211.9
2015-Apr-10 13:31N 29°26' W 094°50'  
Track history (hours):
 
Tides and Currents Weather Stations Pressure Air Temp Water Temp Dewpoint Dewpoint Depression Visibility Wind Speed Wind Dir Waves Ship Positions

Kriti Ruby

Last reported at 2015-Apr-13 10:05 UTC. Time now 2015-Apr-19 10:56 UTC.
Position N 29°21' W 094°44'.

Length 183 m; draft 10.2 m.

Type: Ship (hazmat cat B). MMSI: 240941000.

Date/timePositionNaut miles runAvg speedWind from/ knotsBaromVisibWave heightAir tempDewpointWater temp
2015-Apr-13 10:05N 29°21' W 094°44'611.4
2015-Apr-13 09:33N 29°25' W 094°49'1211.6
2015-Apr-13 08:34N 29°35' W 094°56'10 9.8
2015-Apr-13 07:34N 29°43' W 095°01'5 4.8
2015-Apr-13 06:34N 29°44' W 095°07'5 4.6
2015-Apr-13 05:34N 29°44' W 095°12'1 1.3
2015-Apr-13 04:33N 29°44' W 095°13'0 0.0
2015-Apr-12 05:33N 29°44' W 095°13'0 0.0
2015-Apr-12 04:30N 29°44' W 095°13'0 0.0
2015-Apr-12 03:24N 29°44' W 095°13'0 0.0
2015-Apr-12 02:33N 29°44' W 095°13'0 0.0
2015-Apr-12 01:33N 29°44' W 095°13'0 0.0
2015-Apr-12 00:30N 29°44' W 095°13'0 0.0
2015-Apr-11 23:27N 29°44' W 095°13'0 0.0
2015-Apr-11 22:27N 29°44' W 095°13'0 0.0
2015-Apr-11 21:33N 29°44' W 095°13'0 0.0
2015-Apr-11 20:30N 29°44' W 095°13'0 0.0
2015-Apr-11 19:33N 29°44' W 095°13'0 0.0
2015-Apr-11 18:24N 29°44' W 095°13'0 0.0
2015-Apr-11 17:33N 29°44' W 095°13'0 0.0
2015-Apr-11 16:33N 29°44' W 095°13'0 0.0
2015-Apr-11 15:33N 29°44' W 095°13'0 0.0
2015-Apr-11 14:33N 29°44' W 095°13'0 0.0
2015-Apr-11 13:33N 29°44' W 095°13'0 0.0
2015-Apr-11 12:33N 29°44' W 095°13'0 0.0
2015-Apr-11 11:33N 29°44' W 095°13'0 0.0
2015-Apr-11 10:33N 29°44' W 095°13'0 0.0
2015-Apr-11 09:33N 29°44' W 095°13'0 0.0
2015-Apr-11 08:33N 29°44' W 095°13'0 0.0
2015-Apr-11 07:33N 29°44' W 095°13'0 0.0
2015-Apr-11 06:33N 29°44' W 095°13'0 0.0
2015-Apr-11 05:33N 29°44' W 095°13'0 0.0
2015-Apr-11 04:24N 29°44' W 095°13'0 0.0
2015-Apr-11 03:33N 29°44' W 095°13'0 0.0
2015-Apr-11 02:33N 29°44' W 095°13'0 0.0
2015-Apr-11 01:33N 29°44' W 095°13'0 0.0
2015-Apr-11 00:30N 29°44' W 095°13'0 0.0
2015-Apr-10 23:33N 29°44' W 095°13'0 0.0
2015-Apr-10 22:33N 29°44' W 095°13'0 0.0
2015-Apr-10 21:33N 29°44' W 095°13'0 0.0
2015-Apr-10 20:33N 29°44' W 095°13'0 0.0
2015-Apr-10 19:33N 29°44' W 095°13'0 0.0
2015-Apr-10 18:33N 29°44' W 095°13'1 0.9
2015-Apr-10 17:33N 29°43' W 095°14'4 4.1
2015-Apr-10 16:33N 29°45' W 095°10'6 5.7
2015-Apr-10 15:33N 29°44' W 095°03'9 9.0
2015-Apr-10 14:33N 29°37' W 094°57'1211.9
2015-Apr-10 13:31N 29°26' W 094°50'  

Dump ship's entire track history